createdAt,value
2019-02-15T00:02:21.277Z,67.64
2019-02-15T00:04:49.498Z,67.62
2019-02-15T00:07:17.711Z,67.66
2019-02-15T00:09:45.910Z,67.70
2019-02-15T00:12:14.106Z,67.84
2019-02-15T00:14:47.418Z,67.71
2019-02-15T00:17:17.230Z,67.82
2019-02-15T00:19:47.085Z,68.09
2019-02-15T00:22:15.268Z,68.26
2019-02-15T00:24:43.487Z,68.29
2019-02-15T00:27:11.689Z,68.31
2019-02-15T00:29:39.912Z,68.35
2019-02-15T00:32:08.095Z,68.44
2019-02-15T00:34:36.292Z,68.52
2019-02-15T00:37:04.479Z,68.54
2019-02-15T00:39:32.691Z,68.55
2019-02-15T00:42:00.880Z,68.61
2019-02-15T00:44:29.061Z,68.65
2019-02-15T00:47:04.634Z,68.51
2019-02-15T00:49:34.478Z,68.46
2019-02-15T00:52:04.341Z,68.47
2019-02-15T00:54:42.743Z,68.57
2019-02-15T00:57:28.989Z,68.69
2019-02-15T01:00:17.052Z,68.75
2019-02-15T01:02:58.936Z,68.81
2019-02-15T01:05:41.005Z,68.86
2019-02-15T01:08:16.680Z,68.91
2019-02-15T01:10:48.915Z,68.92
2019-02-15T01:13:17.092Z,68.90
2019-02-15T01:15:45.284Z,69.09
2019-02-15T01:18:13.466Z,69.29
2019-02-15T01:20:41.654Z,69.36
2019-02-15T01:23:09.841Z,69.38
2019-02-15T01:25:39.703Z,69.43
2019-02-15T01:28:09.524Z,69.47
2019-02-15T01:30:39.383Z,69.44
2019-02-15T01:33:09.203Z,69.50
2019-02-15T01:35:39.078Z,69.49
2019-02-15T01:38:15.040Z,69.54
2019-02-15T01:40:47.821Z,69.63
2019-02-15T01:43:17.655Z,69.60
2019-02-15T01:45:47.589Z,69.54
2019-02-15T01:48:15.804Z,69.61
2019-02-15T01:50:43.988Z,69.82
2019-02-15T01:53:12.235Z,69.90
2019-02-15T01:55:40.433Z,69.86
2019-02-15T01:58:08.627Z,69.83
2019-02-15T02:00:36.909Z,69.78
2019-02-15T02:03:05.106Z,69.81
2019-02-15T02:05:33.290Z,69.88
2019-02-15T02:08:01.764Z,70.05
2019-02-15T02:10:29.946Z,70.12
2019-02-15T02:12:58.142Z,70.22
2019-02-15T02:15:26.325Z,70.18
2019-02-15T02:17:54.529Z,70.02
2019-02-15T02:20:22.720Z,70.03
2019-02-15T02:22:50.924Z,70.18
2019-02-15T02:25:19.104Z,70.27
2019-02-15T02:27:47.340Z,70.36
2019-02-15T02:30:15.534Z,70.50
2019-02-15T02:32:43.755Z,70.47
2019-02-15T02:35:11.936Z,70.48
2019-02-15T02:37:40.139Z,70.46
2019-02-15T02:40:08.988Z,70.45
2019-02-15T02:42:37.212Z,70.34
2019-02-15T02:45:07.054Z,70.34
2019-02-15T02:47:35.248Z,70.30
2019-02-15T02:50:03.898Z,70.24
2019-02-15T02:52:32.112Z,70.39
2019-02-15T02:55:00.335Z,70.48
2019-02-15T02:57:28.515Z,70.53
2019-02-15T02:59:56.736Z,70.59
2019-02-15T03:02:24.930Z,70.69
2019-02-15T03:04:53.157Z,70.75
2019-02-15T03:07:21.373Z,70.68
2019-02-15T03:09:49.569Z,70.64
2019-02-15T03:12:17.748Z,70.76
2019-02-15T03:14:45.958Z,70.75
2019-02-15T03:17:14.149Z,70.89
2019-02-15T03:19:42.346Z,70.93
2019-02-15T03:22:10.520Z,70.88
2019-02-15T03:24:38.720Z,70.87
2019-02-15T03:27:06.922Z,70.76
2019-02-15T03:29:35.118Z,70.66
2019-02-15T03:32:03.318Z,70.64
2019-02-15T03:34:31.492Z,70.72
2019-02-15T03:37:04.305Z,70.74
2019-02-15T03:39:43.326Z,70.67
2019-02-15T03:42:13.092Z,70.60
2019-02-15T03:44:41.313Z,70.75
2019-02-15T03:47:09.507Z,70.80
2019-02-15T03:49:37.689Z,70.85
2019-02-15T03:52:05.884Z,70.86
2019-02-15T03:54:34.075Z,70.78
2019-02-15T03:57:02.267Z,70.95
2019-02-15T03:59:30.459Z,71.07
2019-02-15T04:01:58.650Z,71.07
2019-02-15T04:04:26.871Z,70.98
2019-02-15T04:06:55.074Z,70.95
2019-02-15T04:09:23.262Z,71.04
2019-02-15T04:11:51.482Z,71.08
2019-02-15T04:14:19.671Z,71.14
2019-02-15T04:16:47.860Z,71.18
2019-02-15T04:19:16.068Z,71.22
2019-02-15T04:21:44.320Z,71.12
2019-02-15T04:24:13.586Z,71.01
2019-02-15T04:26:41.923Z,70.97
2019-02-15T04:29:10.134Z,71.10
2019-02-15T04:31:38.329Z,71.22
2019-02-15T04:34:06.516Z,71.12
2019-02-15T04:36:34.714Z,71.17
2019-02-15T04:39:04.673Z,71.15
2019-02-15T04:41:33.135Z,71.04
2019-02-15T04:44:01.330Z,71.14
2019-02-15T04:46:29.553Z,71.30
2019-02-15T04:48:57.734Z,71.23
2019-02-15T04:51:25.951Z,71.27
2019-02-15T04:53:54.156Z,71.36
2019-02-15T04:56:22.345Z,71.44
2019-02-15T04:58:50.548Z,71.43
2019-02-15T05:01:18.744Z,71.54
2019-02-15T05:03:46.950Z,71.64
2019-02-15T05:06:15.139Z,71.60
2019-02-15T05:08:43.325Z,71.66
2019-02-15T05:11:11.522Z,71.65
2019-02-15T05:13:39.707Z,71.69
2019-02-15T05:16:07.904Z,71.64
2019-02-15T05:18:36.086Z,71.62
2019-02-15T05:21:04.300Z,71.67
2019-02-15T05:23:32.505Z,71.76
2019-02-15T05:26:00.772Z,71.82
2019-02-15T05:28:28.948Z,71.85
2019-02-15T05:30:57.127Z,71.66
2019-02-15T05:33:25.319Z,71.64
2019-02-15T05:35:53.499Z,71.78
2019-02-15T05:38:21.703Z,71.82
2019-02-15T05:40:49.905Z,71.70
2019-02-15T05:43:18.127Z,71.64
2019-02-15T05:45:46.302Z,71.59
2019-02-15T05:48:14.495Z,71.76
2019-02-15T05:50:42.684Z,71.83
2019-02-15T05:53:10.909Z,71.88
2019-02-15T05:55:39.091Z,72.05
2019-02-15T05:58:07.317Z,72.18
2019-02-15T06:00:37.240Z,72.07
2019-02-15T06:03:05.434Z,72.05
2019-02-15T06:05:33.627Z,72.05
2019-02-15T06:08:01.822Z,72.11
2019-02-15T06:10:30.011Z,72.14
2019-02-15T06:12:58.209Z,72.17
2019-02-15T06:15:26.414Z,72.13
2019-02-15T06:17:54.625Z,71.96
2019-02-15T06:20:22.836Z,71.91
2019-02-15T06:22:51.036Z,71.89
2019-02-15T06:25:19.223Z,72.09
2019-02-15T06:27:47.419Z,72.22
2019-02-15T06:30:15.599Z,72.18
2019-02-15T06:32:43.802Z,72.08
2019-02-15T06:35:11.988Z,71.99
2019-02-15T06:37:40.203Z,71.88
2019-02-15T06:40:08.417Z,72.06
2019-02-15T06:42:36.629Z,72.24
2019-02-15T06:45:06.401Z,72.26
2019-02-15T06:47:34.538Z,72.24
2019-02-15T06:50:02.739Z,72.33
2019-02-15T06:52:30.921Z,72.48
2019-02-15T06:54:59.120Z,72.57
2019-02-15T06:57:27.308Z,72.40
2019-02-15T06:59:57.148Z,72.22
2019-02-15T07:02:33.029Z,72.18
2019-02-15T07:05:11.957Z,72.20
2019-02-15T07:07:40.148Z,72.25
2019-02-15T07:10:08.351Z,72.38
2019-02-15T07:12:36.542Z,72.73
2019-02-15T07:15:05.972Z,72.83
2019-02-15T07:17:34.176Z,72.83
2019-02-15T07:20:02.367Z,72.94
2019-02-15T07:22:30.579Z,73.14
2019-02-15T07:24:58.772Z,73.10
2019-02-15T07:27:26.952Z,72.93
2019-02-15T07:29:55.163Z,72.84
2019-02-15T07:32:23.349Z,72.78
2019-02-15T07:34:51.547Z,72.89
2019-02-15T07:37:19.724Z,73.08
2019-02-15T07:39:48.070Z,73.30
2019-02-15T07:42:16.332Z,73.38
2019-02-15T07:44:44.488Z,73.30
2019-02-15T07:47:12.680Z,73.02
2019-02-15T07:49:40.955Z,72.40
2019-02-15T07:52:09.229Z,71.94
2019-02-15T07:54:37.430Z,71.17
2019-02-15T07:57:05.617Z,70.68
2019-02-15T07:59:33.815Z,69.95
2019-02-15T08:02:02.299Z,69.26
2019-02-15T08:04:30.707Z,68.57
2019-02-15T08:06:58.891Z,68.13
2019-02-15T08:09:27.085Z,67.35
2019-02-15T08:11:55.277Z,66.74
2019-02-15T08:14:23.472Z,66.17
2019-02-15T08:16:51.708Z,65.87
2019-02-15T08:19:21.297Z,65.63
2019-02-15T08:21:49.608Z,65.49
2019-02-15T08:24:17.825Z,65.62
2019-02-15T08:26:46.052Z,65.26
2019-02-15T08:29:14.250Z,65.12
2019-02-15T08:31:42.445Z,65.02
2019-02-15T08:34:10.636Z,64.76
2019-02-15T08:36:38.842Z,64.63
2019-02-15T08:39:07.603Z,64.27
2019-02-15T08:41:35.802Z,64.32
2019-02-15T08:44:03.992Z,63.99
2019-02-15T08:46:32.223Z,63.96
2019-02-15T08:49:00.407Z,63.90
2019-02-15T08:51:28.642Z,63.61
2019-02-15T08:53:56.863Z,63.24
2019-02-15T08:56:25.060Z,63.13
2019-02-15T08:58:53.250Z,62.84
2019-02-15T09:01:21.450Z,62.53
2019-02-15T09:03:49.651Z,62.03
2019-02-15T09:06:17.857Z,60.72
2019-02-15T09:08:46.055Z,60.63
2019-02-15T09:11:14.252Z,59.62
2019-02-15T09:13:42.456Z,57.06
2019-02-15T09:16:10.848Z,56.27
2019-02-15T09:18:39.009Z,55.33
2019-02-15T09:21:07.205Z,55.71
2019-02-15T09:23:35.403Z,54.87
2019-02-15T09:26:03.622Z,54.71
2019-02-15T09:28:33.464Z,55.04
2019-02-15T09:31:01.654Z,55.11
2019-02-15T09:33:29.860Z,54.09
2019-02-15T09:35:58.080Z,53.88
2019-02-15T09:38:26.305Z,53.71
2019-02-15T09:40:54.499Z,53.12
2019-02-15T09:43:22.789Z,52.95
2019-02-15T09:45:50.984Z,52.60
2019-02-15T09:48:19.187Z,51.53
2019-02-15T09:50:47.374Z,49.54
2019-02-15T09:53:15.583Z,48.87
2019-02-15T09:55:43.772Z,47.87
2019-02-15T09:58:11.983Z,45.29
2019-02-15T10:00:40.179Z,46.81
2019-02-15T10:03:08.408Z,45.73
2019-02-15T10:05:36.605Z,45.69
2019-02-15T10:08:04.847Z,45.50
2019-02-15T10:10:33.101Z,44.54
2019-02-15T10:13:01.300Z,44.29
2019-02-15T10:15:29.494Z,43.48
2019-02-15T10:17:57.699Z,43.27
2019-02-15T10:20:25.883Z,42.71
2019-02-15T10:22:54.078Z,41.83
2019-02-15T10:25:22.288Z,41.46
2019-02-15T10:27:50.504Z,40.45
2019-02-15T10:30:18.756Z,39.58
2019-02-15T10:32:46.942Z,39.65
2019-02-15T10:35:15.311Z,38.91
2019-02-15T10:37:43.505Z,38.14
2019-02-15T10:40:11.985Z,37.32
2019-02-15T10:42:40.192Z,37.71
2019-02-15T10:45:11.550Z,36.41
2019-02-15T10:47:39.745Z,36.81
2019-02-15T10:50:09.898Z,36.46
2019-02-15T10:52:38.087Z,35.68
2019-02-15T10:55:09.018Z,35.94
2019-02-15T10:57:37.234Z,36.15
2019-02-15T11:00:10.584Z,35.58
2019-02-15T11:02:38.851Z,35.15
2019-02-15T11:05:07.189Z,35.06
2019-02-15T11:07:35.379Z,34.49
2019-02-15T11:10:04.628Z,33.56
2019-02-15T11:12:32.848Z,33.40
2019-02-15T11:15:01.093Z,33.20
2019-02-15T11:17:29.359Z,32.29
2019-02-15T11:19:57.513Z,31.68
2019-02-15T11:22:25.718Z,31.92
2019-02-15T11:24:53.932Z,32.03
2019-02-15T11:27:22.142Z,31.69
2019-02-15T11:29:50.341Z,31.73
2019-02-15T11:32:18.549Z,31.93
2019-02-15T11:34:46.740Z,31.48
2019-02-15T11:37:14.977Z,30.40
2019-02-15T11:39:43.189Z,30.73
2019-02-15T11:42:11.395Z,30.25
2019-02-15T11:44:39.601Z,29.81
2019-02-15T11:47:07.813Z,29.84
2019-02-15T11:49:36.004Z,29.39
2019-02-15T11:52:04.236Z,29.39
2019-02-15T11:54:32.453Z,29.50
2019-02-15T11:57:00.690Z,29.27
2019-02-15T11:59:28.889Z,29.27
2019-02-15T12:02:05.462Z,29.11
2019-02-15T12:04:27.027Z,28.71
2019-02-15T12:06:55.308Z,29.13
2019-02-15T12:09:23.505Z,28.81
2019-02-15T12:11:51.741Z,28.65
2019-02-15T12:14:20.820Z,28.69
2019-02-15T12:16:49.048Z,28.78
2019-02-15T12:19:17.257Z,28.46
2019-02-15T12:21:45.481Z,28.27
2019-02-15T12:24:13.675Z,28.19
2019-02-15T12:26:41.884Z,28.01
2019-02-15T12:29:10.077Z,27.82
2019-02-15T12:31:38.287Z,27.94
2019-02-15T12:34:07.381Z,26.34
2019-02-15T12:36:35.916Z,27.25
2019-02-15T12:39:04.880Z,27.22
2019-02-15T12:41:33.096Z,27.43
2019-02-15T12:44:01.324Z,26.79
2019-02-15T12:46:29.520Z,26.51
2019-02-15T12:48:57.724Z,26.43
2019-02-15T12:51:25.969Z,26.85
2019-02-15T12:53:54.171Z,26.74
2019-02-15T12:56:22.366Z,26.64
2019-02-15T12:58:50.577Z,25.88
2019-02-15T13:01:18.784Z,26.44
2019-02-15T13:03:46.981Z,26.02
2019-02-15T13:06:15.201Z,26.05
2019-02-15T13:08:43.415Z,25.96
2019-02-15T13:11:11.617Z,25.60
2019-02-15T13:13:39.819Z,25.19
2019-02-15T13:16:08.016Z,25.00
2019-02-15T13:18:36.225Z,25.00
2019-02-15T13:21:04.444Z,25.14
2019-02-15T13:23:32.662Z,24.82
2019-02-15T13:26:08.293Z,24.91
2019-02-15T13:28:30.866Z,24.41
2019-02-15T13:30:59.059Z,24.51
2019-02-15T13:33:27.374Z,24.31
2019-02-15T13:35:55.588Z,24.55
2019-02-15T13:38:23.793Z,24.01
2019-02-15T13:40:51.988Z,24.43
2019-02-15T13:43:20.203Z,24.40
2019-02-15T13:45:48.434Z,24.34
2019-02-15T13:48:16.655Z,24.31
2019-02-15T13:50:44.860Z,24.40
2019-02-15T13:53:13.067Z,24.30
2019-02-15T13:55:41.271Z,24.19
2019-02-15T13:58:09.470Z,23.73
2019-02-15T14:00:37.680Z,23.87
2019-02-15T14:03:05.880Z,24.16
2019-02-15T14:05:34.088Z,24.24
2019-02-15T14:08:02.279Z,24.00
2019-02-15T14:10:30.485Z,24.24
2019-02-15T14:12:58.675Z,23.90
2019-02-15T14:15:26.874Z,24.01
2019-02-15T14:17:55.064Z,23.98
2019-02-15T14:20:23.270Z,23.88
2019-02-15T14:22:51.474Z,23.81
2019-02-15T14:25:19.702Z,23.70
2019-02-15T14:27:48.096Z,23.67
2019-02-15T14:30:16.399Z,23.43
2019-02-15T14:32:44.586Z,23.50
2019-02-15T14:35:13.943Z,23.72
2019-02-15T14:37:42.163Z,23.98
2019-02-15T14:40:11.604Z,23.54
2019-02-15T14:42:39.799Z,23.54
2019-02-15T14:45:09.868Z,23.69
2019-02-15T14:47:38.074Z,23.52
2019-02-15T14:50:08.066Z,23.56
2019-02-15T14:52:36.342Z,23.53
2019-02-15T14:55:06.185Z,23.65
2019-02-15T14:57:34.465Z,23.61
2019-02-15T15:00:02.674Z,23.83
2019-02-15T15:02:30.881Z,23.97
2019-02-15T15:04:59.058Z,23.97
2019-02-15T15:07:27.267Z,24.04
2019-02-15T15:09:55.479Z,23.94
2019-02-15T15:12:23.677Z,23.99
2019-02-15T15:14:51.879Z,23.80
2019-02-15T15:17:20.073Z,23.73
2019-02-15T15:19:48.285Z,23.90
2019-02-15T15:22:16.487Z,23.65
2019-02-15T15:24:44.688Z,23.79
2019-02-15T15:27:13.572Z,23.63
2019-02-15T15:29:41.767Z,23.63
2019-02-15T15:32:09.962Z,23.72
2019-02-15T15:34:38.151Z,23.28
2019-02-15T15:37:06.362Z,23.57
2019-02-15T15:39:34.557Z,23.35
2019-02-15T15:42:02.747Z,23.26
2019-02-15T15:44:30.929Z,22.96
2019-02-15T15:46:59.142Z,23.01
2019-02-15T15:49:27.347Z,22.82
2019-02-15T15:51:55.571Z,22.87
2019-02-15T15:54:23.786Z,23.03
2019-02-15T15:56:51.994Z,23.09
2019-02-15T15:59:20.178Z,22.58
2019-02-15T16:01:48.409Z,22.82
2019-02-15T16:04:16.624Z,22.39
2019-02-15T16:06:44.822Z,22.50
2019-02-15T16:09:13.018Z,22.83
2019-02-15T16:11:41.246Z,23.00
2019-02-15T16:14:09.431Z,23.70
2019-02-15T16:16:37.614Z,23.75
2019-02-15T16:19:05.837Z,24.31
2019-02-15T16:21:34.044Z,24.63
2019-02-15T16:24:02.239Z,24.88
2019-02-15T16:26:30.435Z,25.61
2019-02-15T16:28:58.645Z,26.05
2019-02-15T16:31:26.852Z,26.73
2019-02-15T16:33:55.052Z,27.36
2019-02-15T16:36:23.233Z,28.15
2019-02-15T16:38:51.435Z,28.42
2019-02-15T16:41:19.641Z,28.83
2019-02-15T16:43:47.847Z,29.66
2019-02-15T16:46:16.036Z,29.75
2019-02-15T16:48:44.252Z,29.93
2019-02-15T16:51:12.444Z,30.51
2019-02-15T16:53:40.648Z,31.11
2019-02-15T16:56:08.838Z,31.18
2019-02-15T16:58:37.044Z,31.74
2019-02-15T17:01:05.218Z,32.29
2019-02-15T17:03:33.420Z,32.48
2019-02-15T17:06:01.636Z,32.87
2019-02-15T17:08:29.858Z,33.51
2019-02-15T17:10:58.054Z,34.13
2019-02-15T17:13:26.257Z,34.38
2019-02-15T17:15:54.449Z,34.51
2019-02-15T17:18:22.680Z,35.16
2019-02-15T17:20:50.861Z,35.16
2019-02-15T17:23:19.069Z,35.63
2019-02-15T17:25:47.279Z,36.42
2019-02-15T17:28:15.492Z,36.97
2019-02-15T17:30:43.670Z,37.34
2019-02-15T17:33:11.869Z,37.55
2019-02-15T17:35:40.053Z,37.64
2019-02-15T17:38:08.250Z,37.58
2019-02-15T17:40:36.435Z,38.00
2019-02-15T17:43:04.640Z,37.98
2019-02-15T17:45:32.858Z,38.22
2019-02-15T17:48:01.044Z,38.20
2019-02-15T17:50:29.265Z,38.59
2019-02-15T17:52:57.458Z,39.15
2019-02-15T17:55:25.665Z,39.28
2019-02-15T17:57:53.852Z,39.52
2019-02-15T18:00:23.696Z,39.96
2019-02-15T18:02:51.900Z,40.40
2019-02-15T18:05:20.098Z,40.93
2019-02-15T18:07:49.748Z,41.20
2019-02-15T18:10:17.978Z,41.60
2019-02-15T18:12:46.169Z,42.09
2019-02-15T18:15:14.401Z,42.53
2019-02-15T18:17:42.578Z,42.40
2019-02-15T18:20:10.797Z,42.99
2019-02-15T18:22:39.016Z,42.83
2019-02-15T18:25:08.387Z,43.24
2019-02-15T18:27:36.569Z,43.53
2019-02-15T18:30:08.033Z,43.95
2019-02-15T18:32:36.234Z,43.90
2019-02-15T18:35:04.713Z,44.00
2019-02-15T18:37:32.921Z,44.22
2019-02-15T18:40:01.135Z,44.38
2019-02-15T18:42:29.311Z,44.78
2019-02-15T18:44:57.543Z,45.20
2019-02-15T18:47:25.737Z,45.28
2019-02-15T18:49:53.922Z,45.39
2019-02-15T18:52:22.158Z,45.22
2019-02-15T18:54:50.337Z,44.98
2019-02-15T18:57:18.539Z,45.04
2019-02-15T18:59:46.759Z,45.10
2019-02-15T19:02:14.963Z,45.28
2019-02-15T19:04:43.152Z,45.48
2019-02-15T19:07:11.350Z,45.50
2019-02-15T19:09:39.549Z,45.36
2019-02-15T19:12:07.756Z,45.65
2019-02-15T19:14:35.938Z,45.22
2019-02-15T19:17:04.140Z,45.90
2019-02-15T19:19:32.332Z,45.86
2019-02-15T19:22:00.539Z,45.78
2019-02-15T19:24:28.733Z,46.13
2019-02-15T19:26:56.939Z,45.97
2019-02-15T19:29:25.591Z,46.07
2019-02-15T19:31:53.791Z,46.31
2019-02-15T19:34:22.004Z,46.15
2019-02-15T19:36:50.204Z,46.20
2019-02-15T19:39:18.391Z,46.10
2019-02-15T19:41:46.621Z,46.28
2019-02-15T19:44:14.816Z,46.21
2019-02-15T19:46:43.020Z,46.02
2019-02-15T19:49:11.290Z,46.01
2019-02-15T19:51:39.508Z,46.34
2019-02-15T19:54:07.713Z,46.50
2019-02-15T19:56:35.910Z,46.45
2019-02-15T19:59:04.116Z,46.58
2019-02-15T20:01:32.321Z,46.99
2019-02-15T20:04:00.535Z,47.06
2019-02-15T20:06:28.732Z,47.39
2019-02-15T20:08:56.929Z,47.37
2019-02-15T20:11:25.121Z,47.55
2019-02-15T20:13:53.325Z,47.65
2019-02-15T20:16:21.517Z,47.94
2019-02-15T20:18:49.745Z,47.80
2019-02-15T20:21:17.931Z,47.97
2019-02-15T20:23:46.146Z,48.38
2019-02-15T20:26:14.350Z,48.65
2019-02-15T20:28:42.554Z,48.61
2019-02-15T20:31:10.740Z,49.06
2019-02-15T20:33:38.944Z,49.10
2019-02-15T20:36:07.135Z,49.37
2019-02-15T20:38:35.357Z,49.63
2019-02-15T20:41:03.570Z,49.69
2019-02-15T20:43:31.774Z,49.99
2019-02-15T20:45:59.960Z,50.33
2019-02-15T20:48:28.159Z,50.63
2019-02-15T20:50:56.346Z,50.79
2019-02-15T20:53:24.622Z,51.09
2019-02-15T20:55:52.808Z,51.32
2019-02-15T20:58:21.024Z,51.68
2019-02-15T21:00:49.223Z,51.81
2019-02-15T21:03:17.428Z,51.90
2019-02-15T21:05:45.633Z,52.15
2019-02-15T21:08:13.831Z,52.37
2019-02-15T21:10:42.046Z,52.40
2019-02-15T21:13:10.256Z,52.46
2019-02-15T21:15:38.468Z,52.62
2019-02-15T21:18:06.681Z,52.71
2019-02-15T21:20:34.891Z,52.92
2019-02-15T21:23:03.100Z,53.09
2019-02-15T21:25:31.300Z,53.26
2019-02-15T21:27:59.559Z,53.43
2019-02-15T21:30:27.753Z,53.60
2019-02-15T21:32:55.957Z,53.76
2019-02-15T21:35:24.153Z,53.89
2019-02-15T21:37:52.346Z,53.90
2019-02-15T21:40:20.547Z,54.01
2019-02-15T21:42:48.762Z,54.18
2019-02-15T21:45:16.960Z,54.32
2019-02-15T21:47:45.189Z,54.37
2019-02-15T21:50:17.163Z,54.47
2019-02-15T21:52:44.542Z,54.73
2019-02-15T21:55:16.337Z,54.94
2019-02-15T21:57:44.544Z,55.17
2019-02-15T22:00:21.193Z,55.41
2019-02-15T22:02:49.379Z,55.59
2019-02-15T22:05:17.864Z,55.60
2019-02-15T22:07:46.045Z,55.86
2019-02-15T22:10:14.269Z,56.00
2019-02-15T22:12:42.453Z,56.04
2019-02-15T22:15:15.724Z,56.19
2019-02-15T22:17:43.919Z,56.31
2019-02-15T22:20:15.931Z,56.46
2019-02-15T22:22:44.119Z,56.68
2019-02-15T22:25:12.341Z,56.74
2019-02-15T22:27:40.552Z,56.93
2019-02-15T22:30:16.917Z,56.96
2019-02-15T22:32:45.131Z,57.13
2019-02-15T22:35:13.333Z,57.03
2019-02-15T22:37:41.514Z,57.10
2019-02-15T22:40:30.217Z,57.26
2019-02-15T22:43:01.344Z,57.35
2019-02-15T22:45:29.538Z,57.24
2019-02-15T22:47:57.763Z,57.40
2019-02-15T22:50:35.299Z,57.52
2019-02-15T22:52:55.894Z,57.76
2019-02-15T22:55:24.131Z,57.82
2019-02-15T22:57:52.318Z,57.83
2019-02-15T23:00:26.659Z,57.91
2019-02-15T23:02:54.862Z,57.96
2019-02-15T23:05:23.089Z,58.10
2019-02-15T23:07:51.310Z,58.16
2019-02-15T23:10:19.513Z,58.23
2019-02-15T23:12:47.709Z,58.45
2019-02-15T23:15:15.913Z,58.58
2019-02-15T23:17:44.131Z,58.72
2019-02-15T23:20:12.323Z,58.75
2019-02-15T23:22:40.541Z,58.89
2019-02-15T23:25:08.745Z,58.86
2019-02-15T23:27:36.927Z,58.97
2019-02-15T23:30:07.163Z,59.03
2019-02-15T23:32:35.356Z,59.04
2019-02-15T23:35:03.757Z,59.22
2019-02-15T23:37:31.958Z,59.23
2019-02-15T23:40:00.307Z,59.30
2019-02-15T23:42:28.470Z,59.36
2019-02-15T23:44:56.674Z,59.37
2019-02-15T23:47:24.854Z,59.43
2019-02-15T23:49:53.045Z,59.72
2019-02-15T23:52:21.248Z,59.82
2019-02-15T23:54:49.444Z,59.70
2019-02-15T23:57:17.645Z,59.76
2019-02-15T23:59:45.829Z,59.79
